Time;durP1;ratioP1;P1;durP2;ratioP2;P2;SDS_P1;SDS_P2;PMS_P1;PMS_P2;Temp;Humidity;BMP_temperature;BMP_pressure;BME280_temperature;BME280_humidity;BME280_pressure;Samples;Min_cycle;Max_cycle;Signal;HPM_P1;HPM_P2
2022/08/01 00:00:14;;;;;;;0.93;0.37;;;22.60;99.90;;;;;;6728051;88;20232;-80
2022/08/01 00:10:16;;;;;;;0.77;0.33;;;22.60;99.90;;;;;;6726670;88;20589;-82
2022/08/01 00:20:17;;;;;;;0.80;0.30;;;22.60;99.90;;;;;;6726207;88;20193;-78
2022/08/01 00:30:17;;;;;;;0.75;0.40;;;22.60;99.90;;;;;;6723964;88;20200;-80
2022/08/01 00:40:18;;;;;;;0.87;0.30;;;22.50;99.90;;;;;;6727548;88;20197;-80
2022/08/01 00:50:19;;;;;;;0.87;0.40;;;22.50;99.90;;;;;;6727625;88;20546;-79
2022/08/01 01:00:20;;;;;;;0.62;0.30;;;22.30;99.90;;;;;;6734570;88;20554;-78
2022/08/01 01:10:35;;;;;;;0.50;0.30;;;22.40;99.90;;;;;;6728758;88;20206;-79
2022/08/01 01:20:42;;;;;;;0.55;0.30;;;22.30;99.90;;;;;;6725798;88;20334;-78
2022/08/01 01:30:46;;;;;;;0.60;0.35;;;22.20;99.90;;;;;;6724803;88;20189;-79
2022/08/01 01:40:49;;;;;;;0.80;0.40;;;22.10;99.90;;;;;;6724552;88;20312;-79
2022/08/01 01:50:52;;;;;;;0.65;0.30;;;22.00;99.90;;;;;;6726287;88;20215;-80
2022/08/01 02:00:54;;;;;;;0.90;0.50;;;21.80;99.90;;;;;;6726886;88;20208;-81
2022/08/01 02:21:23;;;;;;;0.80;0.40;;;21.70;99.90;;;;;;6729276;88;20193;-80
2022/08/01 02:31:24;;;;;;;0.68;0.30;;;21.50;99.90;;;;;;6721206;88;20286;-80
2022/08/01 02:41:27;;;;;;;1.67;0.50;;;21.50;99.90;;;;;;6720612;88;20204;-80
2022/08/01 02:51:29;;;;;;;0.60;0.30;;;21.50;99.90;;;;;;6726013;88;20180;-80
2022/08/01 03:01:32;;;;;;;0.77;0.37;;;21.30;99.90;;;;;;6722935;88;20201;-80
2022/08/01 03:11:36;;;;;;;0.77;0.40;;;21.40;99.90;;;;;;6726248;88;20341;-79
2022/08/01 03:21:38;;;;;;;0.68;0.30;;;21.30;99.90;;;;;;6727132;88;20724;-80
2022/08/01 03:31:42;;;;;;;0.70;0.30;;;21.50;99.90;;;;;;6726751;88;20224;-79
2022/08/01 03:41:50;;;;;;;1.15;0.55;;;21.20;99.90;;;;;;6728984;88;20209;-79
2022/08/01 03:51:52;;;;;;;0.60;0.30;;;21.20;99.90;;;;;;6726355;88;20215;-80
2022/08/01 04:01:55;;;;;;;1.00;0.52;;;21.20;99.90;;;;;;6740700;88;20206;-80
2022/08/01 04:11:55;;;;;;;1.08;0.50;;;21.20;99.90;;;;;;6739741;88;20225;-80
2022/08/01 04:21:56;;;;;;;0.90;0.50;;;21.30;99.90;;;;;;6745338;88;20192;-80
2022/08/01 04:32:00;;;;;;;0.95;0.50;;;21.30;99.90;;;;;;6755246;88;20183;-81
2022/08/01 04:42:03;;;;;;;0.97;0.50;;;21.30;99.90;;;;;;6731362;88;20260;-80
2022/08/01 04:52:05;;;;;;;1.27;0.80;;;21.20;99.90;;;;;;6723626;88;20246;-79
2022/08/01 05:02:10;;;;;;;1.30;0.77;;;21.30;99.90;;;;;;6720134;88;20290;-81
2022/08/01 05:12:10;;;;;;;;;;;21.40;99.90;;;;;;6723895;88;20218;-79
2022/08/01 05:22:11;;;;;;;1.10;0.70;;;21.40;99.90;;;;;;6723772;88;20227;-80
2022/08/01 05:32:11;;;;;;;1.60;0.80;;;21.50;99.90;;;;;;6722656;88;20592;-79
2022/08/01 05:42:12;;;;;;;1.75;0.98;;;21.60;99.90;;;;;;6722856;88;20201;-80
2022/08/01 05:52:13;;;;;;;2.47;0.90;;;21.70;99.90;;;;;;6723638;88;20204;-80
2022/08/01 06:02:14;;;;;;;2.53;1.17;;;21.60;99.90;;;;;;6723678;88;20229;-79
2022/08/01 06:12:14;;;;;;;1.70;1.08;;;21.50;99.90;;;;;;6723609;88;20250;-80
2022/08/01 06:22:15;;;;;;;1.60;0.95;;;21.80;99.90;;;;;;6722182;88;20241;-78
2022/08/01 06:32:16;;;;;;;1.75;1.12;;;21.60;99.90;;;;;;6720707;88;20233;-79
2022/08/01 06:42:17;;;;;;;1.98;1.10;;;21.70;99.90;;;;;;6722459;88;20203;-78
2022/08/01 06:52:17;;;;;;;2.08;1.30;;;21.80;99.90;;;;;;6717786;88;20203;-80
2022/08/01 07:02:18;;;;;;;1.62;1.02;;;21.90;99.90;;;;;;6722178;88;20646;-80
2022/08/01 07:12:18;;;;;;;1.83;1.12;;;22.10;99.90;;;;;;6723973;88;20676;-80
2022/08/01 07:22:19;;;;;;;1.92;1.05;;;22.40;99.90;;;;;;6718832;88;20246;-80
2022/08/01 07:32:19;;;;;;;1.75;1.12;;;22.70;99.90;;;;;;6722174;88;20288;-80
2022/08/01 07:42:20;;;;;;;2.62;1.20;;;22.50;99.90;;;;;;6721151;88;20190;-78
2022/08/01 07:52:20;;;;;;;1.95;1.30;;;22.80;99.90;;;;;;6722190;88;20176;-81
2022/08/01 08:02:21;;;;;;;1.87;1.15;;;23.40;99.90;;;;;;6734560;88;20659;-80
2022/08/01 08:12:21;;;;;;;2.75;1.48;;;23.70;99.90;;;;;;6725567;88;20312;-79
2022/08/01 08:22:23;;;;;;;2.20;1.17;;;23.70;99.90;;;;;;6725163;88;20193;-78
2022/08/01 08:32:24;;;;;;;1.60;1.02;;;23.60;99.90;;;;;;6724277;88;20273;-83
2022/08/01 08:42:25;;;;;;;2.00;1.20;;;24.50;99.90;;;;;;6720351;88;20238;-79
2022/08/01 08:52:26;;;;;;;1.85;1.20;;;24.70;99.90;;;;;;6724064;88;20202;-79
2022/08/01 09:02:27;;;;;;;1.30;0.80;;;24.60;99.90;;;;;;6723266;88;20337;-78
2022/08/01 09:12:27;;;;;;;1.40;0.82;;;24.90;99.90;;;;;;6723616;88;20173;-79
2022/08/01 09:22:33;;;;;;;1.40;0.80;;;24.80;99.90;;;;;;6724075;88;20200;-79
2022/08/01 09:32:33;;;;;;;1.45;0.90;;;26.10;99.90;;;;;;6724385;88;20243;-81
2022/08/01 09:42:34;;;;;;;1.58;0.85;;;26.30;99.90;;;;;;6728528;88;20713;-80
2022/08/01 09:52:34;;;;;;;1.30;0.85;;;26.70;99.90;;;;;;6728118;88;20212;-81
2022/08/01 10:02:42;;;;;;;1.30;0.68;;;27.60;99.90;;;;;;6720599;88;20246;-79
2022/08/01 10:12:43;;;;;;;1.20;0.90;;;28.90;99.90;;;;;;6722900;88;20648;-78
2022/08/01 10:22:44;;;;;;;1.43;0.90;;;29.80;98.40;;;;;;6729582;88;20316;-78
2022/08/01 10:32:46;;;;;;;1.20;0.80;;;30.20;97.00;;;;;;6725325;88;20292;-79
2022/08/01 10:53:15;;;;;;;1.42;1.00;;;29.00;97.60;;;;;;6687698;89;20211;-81
2022/08/01 11:03:34;;;;;;;1.42;0.90;;;27.40;99.90;;;;;;6686302;89;20205;-82
2022/08/01 11:14:12;;;;;;;1.37;0.85;;;27.00;99.90;;;;;;6683142;89;20187;-83
2022/08/01 11:24:13;;;;;;;1.10;0.70;;;28.00;99.90;;;;;;6678958;89;20276;-83
2022/08/01 11:34:13;;;;;;;0.90;0.70;;;28.70;97.90;;;;;;6688363;89;20773;-85
2022/08/01 11:44:22;;;;;;;1.33;0.70;;;29.80;97.70;;;;;;6693680;88;20280;-83
2022/08/01 11:54:31;;;;;;;1.40;0.82;;;29.30;96.80;;;;;;6697947;89;20765;-84
2022/08/01 12:04:52;;;;;;;1.70;1.08;;;30.00;96.60;;;;;;6693202;89;20200;-84
2022/08/01 12:14:54;;;;;;;1.50;1.05;;;28.10;97.90;;;;;;6675218;89;20195;-84
2022/08/01 12:24:55;;;;;;;;;;;27.00;99.50;;;;;;6671347;89;20204;-84
2022/08/01 12:34:57;;;;;;;1.17;0.70;;;27.40;98.60;;;;;;6672385;89;20623;-85
2022/08/01 12:44:57;;;;;;;1.87;1.00;;;27.40;98.90;;;;;;6663520;89;20233;-83
2022/08/01 12:55:10;;;;;;;1.57;0.73;;;27.40;99.30;;;;;;6682056;89;20222;-82
2022/08/01 13:05:12;;;;;;;1.42;0.70;;;27.60;98.50;;;;;;6684784;89;20215;-81
2022/08/01 13:15:21;;;;;;;1.20;0.70;;;28.00;97.70;;;;;;6652896;89;20189;-82
2022/08/01 13:25:22;;;;;;;1.10;0.60;;;27.60;97.70;;;;;;6687856;89;20230;-82
2022/08/01 13:35:23;;;;;;;1.13;0.70;;;28.10;97.10;;;;;;6689774;89;20283;-81
2022/08/01 13:45:23;;;;;;;0.85;0.57;;;27.90;96.90;;;;;;6691764;88;20234;-82
2022/08/01 13:55:24;;;;;;;1.30;0.90;;;28.20;95.00;;;;;;6690059;89;20253;-83
2022/08/01 14:05:24;;;;;;;1.57;0.80;;;27.40;96.80;;;;;;6685550;89;20555;-81
2022/08/01 14:15:25;;;;;;;1.58;0.90;;;27.50;96.40;;;;;;6687595;89;20923;-82
2022/08/01 14:25:25;;;;;;;1.83;0.93;;;27.30;96.60;;;;;;6686066;89;20175;-82
2022/08/01 14:35:26;;;;;;;1.85;0.77;;;27.40;96.10;;;;;;6680895;89;20198;-82
2022/08/01 14:45:27;;;;;;;0.90;0.50;;;27.40;95.30;;;;;;6680773;88;20213;-81
2022/08/01 14:55:28;;;;;;;1.00;0.60;;;27.20;94.90;;;;;;6679320;89;20198;-82
2022/08/01 15:05:30;;;;;;;1.10;0.80;;;26.90;94.30;;;;;;6681829;89;20243;-80
2022/08/01 15:15:31;;;;;;;0.80;0.50;;;27.20;94.60;;;;;;6682092;89;20222;-81
2022/08/01 15:25:31;;;;;;;1.20;0.70;;;28.70;93.30;;;;;;6680691;89;20273;-82
2022/08/01 15:35:32;;;;;;;1.20;0.62;;;28.60;93.20;;;;;;6678265;89;20236;-79
2022/08/01 15:45:32;;;;;;;1.33;0.77;;;28.20;93.50;;;;;;6688314;89;20209;-80
2022/08/01 15:55:37;;;;;;;2.70;0.50;;;28.00;93.30;;;;;;6692736;88;20190;-78
2022/08/01 16:05:38;;;;;;;1.23;0.57;;;27.50;91.90;;;;;;6687109;88;20179;-78
2022/08/01 16:15:39;;;;;;;1.17;0.70;;;27.20;92.20;;;;;;6687416;88;20236;-79
2022/08/01 16:25:39;;;;;;;1.20;0.75;;;27.00;92.30;;;;;;6687493;88;20169;-78
2022/08/01 16:35:43;;;;;;;0.90;0.60;;;27.20;92.40;;;;;;6699959;88;20259;-81
2022/08/01 16:45:45;;;;;;;1.00;0.70;;;27.10;92.30;;;;;;6717841;77;20216;-77
2022/08/01 16:55:46;;;;;;;1.33;0.75;;;26.90;93.10;;;;;;6726234;88;20575;-77
2022/08/01 17:05:46;;;;;;;1.00;0.70;;;27.00;93.70;;;;;;6723341;88;20218;-78
2022/08/01 17:15:47;;;;;;;0.90;0.52;;;27.00;94.40;;;;;;6717882;88;20214;-77
2022/08/01 17:25:47;;;;;;;0.90;0.60;;;26.60;95.40;;;;;;6716759;88;20211;-77
2022/08/01 17:35:48;;;;;;;1.40;0.70;;;26.50;95.80;;;;;;6719079;88;20197;-80
2022/08/01 17:45:50;;;;;;;1.30;0.70;;;26.10;96.60;;;;;;6730291;88;20209;-76
2022/08/01 17:55:51;;;;;;;1.05;0.60;;;26.10;96.90;;;;;;6725133;88;20185;-77
2022/08/01 18:05:51;;;;;;;1.30;0.85;;;26.40;97.10;;;;;;6729752;88;20689;-79
2022/08/01 18:15:52;;;;;;;1.33;0.82;;;26.40;97.30;;;;;;6737154;88;20225;-78
2022/08/01 18:25:52;;;;;;;1.53;0.80;;;26.30;97.70;;;;;;6729590;88;20248;-78
2022/08/01 18:35:53;;;;;;;1.85;0.90;;;25.90;98.20;;;;;;6726575;88;20286;-77
2022/08/01 18:45:55;;;;;;;1.47;0.97;;;25.60;98.90;;;;;;6734387;88;20184;-78
2022/08/01 18:55:56;;;;;;;1.63;0.90;;;25.20;99.50;;;;;;6729317;88;20177;-77
2022/08/01 19:05:56;;;;;;;1.30;0.95;;;24.80;99.90;;;;;;6722170;88;20197;-78
2022/08/01 19:15:58;;;;;;;2.33;0.88;;;24.50;99.90;;;;;;6723876;88;20344;-76
2022/08/01 19:26:03;;;;;;;1.35;0.80;;;24.30;99.90;;;;;;6725732;88;20246;-76
2022/08/01 19:36:06;;;;;;;1.20;0.80;;;24.00;99.90;;;;;;6724396;88;20226;-78
2022/08/01 19:46:06;;;;;;;1.23;0.80;;;23.80;99.90;;;;;;6728953;88;20316;-79
2022/08/01 19:56:08;;;;;;;1.60;0.97;;;23.60;99.90;;;;;;6728346;88;20194;-80
2022/08/01 20:06:10;;;;;;;1.70;0.90;;;23.40;99.90;;;;;;6734757;88;20501;-78
2022/08/01 20:16:10;;;;;;;1.30;0.82;;;23.30;99.90;;;;;;6728203;88;20242;-78
2022/08/01 20:26:14;;;;;;;1.63;0.70;;;23.10;99.90;;;;;;6729405;88;20313;-77
2022/08/01 20:36:15;;;;;;;1.00;0.60;;;22.80;99.90;;;;;;6743640;88;20630;-81
2022/08/01 20:46:16;;;;;;;1.10;0.60;;;22.60;99.90;;;;;;6741733;88;20192;-79
2022/08/01 20:56:37;;;;;;;1.42;0.60;;;22.30;99.90;;;;;;6741115;88;20205;-82
2022/08/01 21:06:43;;;;;;;1.05;0.60;;;21.90;99.90;;;;;;6737548;88;20325;-80
2022/08/01 21:16:50;;;;;;;1.55;0.70;;;21.60;99.90;;;;;;6750749;88;20199;-78
2022/08/01 21:26:52;;;;;;;1.00;0.57;;;21.30;99.90;;;;;;6744601;88;20658;-78
2022/08/01 21:36:52;;;;;;;1.00;0.50;;;21.30;99.90;;;;;;6740804;88;20228;-79
2022/08/01 21:46:53;;;;;;;1.47;0.60;;;21.00;99.90;;;;;;6741509;88;20322;-80
2022/08/01 21:57:18;;;;;;;1.00;0.50;;;20.70;99.90;;;;;;6734203;88;20695;-78
2022/08/01 22:07:20;;;;;;;;;;;20.50;99.90;;;;;;6729832;88;20669;-77
2022/08/01 22:17:22;;;;;;;0.90;0.50;;;20.40;99.90;;;;;;6726385;88;20180;-76
2022/08/01 22:27:23;;;;;;;0.80;0.40;;;20.30;99.90;;;;;;6729634;88;20215;-76
2022/08/01 22:37:27;;;;;;;1.33;0.50;;;20.30;99.90;;;;;;6720338;88;20244;-78
2022/08/01 22:47:40;;;;;;;;;;;20.20;99.90;;;;;;6743508;77;20617;-77
2022/08/01 22:57:53;;;;;;;1.00;0.50;;;20.00;99.90;;;;;;6743686;88;20145;-78
2022/08/01 23:07:55;;;;;;;0.80;0.40;;;19.80;99.90;;;;;;6760126;88;20222;-78
2022/08/01 23:17:56;;;;;;;0.90;0.60;;;19.70;99.90;;;;;;6747938;88;20206;-78
2022/08/01 23:27:58;;;;;;;1.10;0.60;;;19.60;99.90;;;;;;6742990;88;20554;-78
2022/08/01 23:37:59;;;;;;;1.25;0.68;;;19.80;99.90;;;;;;6743183;88;20194;-78
2022/08/01 23:48:00;;;;;;;0.90;0.50;;;19.70;99.90;;;;;;6754109;88;20219;-78
2022/08/01 23:58:02;;;;;;;0.90;0.43;;;19.50;99.90;;;;;;6745254;88;20201;-78
